createdAt,value
2023-05-13T00:00:26.806Z,13.17
2023-05-13T00:02:53.804Z,12.73
2023-05-13T00:05:20.626Z,13.20
2023-05-13T00:07:47.300Z,13.90
2023-05-13T00:10:14.261Z,13.10
2023-05-13T00:12:41.020Z,13.33
2023-05-13T00:15:08.232Z,12.73
2023-05-13T00:17:35.140Z,12.73
2023-05-13T00:20:01.948Z,12.60
2023-05-13T00:22:28.687Z,12.60
2023-05-13T00:24:55.370Z,13.50
2023-05-13T00:27:22.177Z,13.03
2023-05-13T00:29:48.964Z,13.93
2023-05-13T00:32:15.636Z,13.73
2023-05-13T00:34:42.408Z,12.63
2023-05-13T00:37:10.509Z,13.33
2023-05-13T00:39:37.169Z,13.43
2023-05-13T00:42:04.989Z,14.10
2023-05-13T00:44:31.865Z,13.33
2023-05-13T00:46:59.135Z,14.87
2023-05-13T00:49:26.512Z,14.97
2023-05-13T00:51:55.294Z,14.17
2023-05-13T00:54:22.178Z,16.10
2023-05-13T00:56:49.038Z,14.30
2023-05-13T00:59:16.381Z,14.13
2023-05-13T01:02:03.371Z,13.87
2023-05-13T01:04:30.107Z,15.33
2023-05-13T01:07:03.012Z,15.80
2023-05-13T01:09:35.825Z,14.40
2023-05-13T01:12:08.828Z,15.20
2023-05-13T01:14:45.330Z,15.80
2023-05-13T01:17:18.210Z,15.03
2023-05-13T01:19:49.460Z,15.80
2023-05-13T01:22:16.847Z,15.30
2023-05-13T01:24:43.655Z,15.10
2023-05-13T01:27:10.618Z,14.87
2023-05-13T01:29:37.788Z,14.50
2023-05-13T01:32:05.459Z,15.57
2023-05-13T01:34:33.769Z,15.30
2023-05-13T01:37:00.975Z,15.80
2023-05-13T01:39:28.727Z,16.33
2023-05-13T01:41:55.835Z,15.80
2023-05-13T01:44:22.593Z,16.63
2023-05-13T01:46:50.679Z,16.03
2023-05-13T01:49:17.590Z,16.17
2023-05-13T01:51:44.306Z,16.53
2023-05-13T01:54:11.731Z,16.53
2023-05-13T01:56:38.981Z,15.00
2023-05-13T01:59:05.749Z,17.17
2023-05-13T02:01:32.637Z,16.80
2023-05-13T02:04:00.143Z,17.13
2023-05-13T02:06:28.223Z,17.07
2023-05-13T02:08:55.170Z,16.30
2023-05-13T02:11:22.463Z,16.80
2023-05-13T02:13:49.216Z,15.93
2023-05-13T02:16:20.004Z,16.47
2023-05-13T02:18:46.868Z,15.90
2023-05-13T02:21:13.583Z,16.77
2023-05-13T02:23:40.248Z,15.90
2023-05-13T02:26:06.993Z,18.40
2023-05-13T02:28:33.833Z,18.40
2023-05-13T02:31:00.658Z,18.87
2023-05-13T02:33:27.551Z,18.40
2023-05-13T02:35:54.302Z,18.20
2023-05-13T02:38:21.056Z,17.40
2023-05-13T02:40:48.290Z,18.33
2023-05-13T02:43:15.277Z,18.27
2023-05-13T02:45:42.238Z,19.30
2023-05-13T02:48:10.981Z,18.00
2023-05-13T02:50:38.030Z,19.27
2023-05-13T02:53:04.913Z,18.57
2023-05-13T02:55:31.637Z,19.47
2023-05-13T02:57:58.492Z,18.10
2023-05-13T03:00:25.618Z,20.57
2023-05-13T03:02:52.546Z,18.03
2023-05-13T03:05:19.469Z,19.53
2023-05-13T03:07:46.297Z,19.30
2023-05-13T03:10:14.355Z,19.10
2023-05-13T03:12:41.296Z,19.17
2023-05-13T03:15:08.685Z,20.27
2023-05-13T03:17:35.434Z,19.87
2023-05-13T03:20:02.318Z,21.63
2023-05-13T03:22:29.168Z,20.97
2023-05-13T03:24:55.899Z,21.90
2023-05-13T03:27:22.624Z,21.77
2023-05-13T03:29:49.287Z,22.83
2023-05-13T03:32:16.078Z,23.30
2023-05-13T03:34:42.775Z,22.57
2023-05-13T03:37:10.002Z,22.40
2023-05-13T03:39:37.118Z,22.50
2023-05-13T03:42:04.074Z,24.57
2023-05-13T03:44:30.846Z,24.43
2023-05-13T03:46:57.575Z,23.67
2023-05-13T03:49:24.377Z,22.67
2023-05-13T03:51:51.124Z,24.30
2023-05-13T03:54:17.846Z,22.10
2023-05-13T03:56:44.632Z,23.13
2023-05-13T03:59:11.330Z,21.57
2023-05-13T04:01:38.114Z,22.50
2023-05-13T04:04:05.039Z,23.00
2023-05-13T04:06:31.922Z,23.37
2023-05-13T04:08:58.741Z,23.00
2023-05-13T04:11:25.943Z,25.07
2023-05-13T04:13:52.992Z,24.60
2023-05-13T04:16:19.750Z,23.83
2023-05-13T04:18:46.520Z,24.07
2023-05-13T04:21:13.282Z,23.53
2023-05-13T04:23:39.931Z,22.87
2023-05-13T04:26:06.783Z,22.73
2023-05-13T04:28:34.640Z,24.30
2023-05-13T04:31:02.905Z,24.47
2023-05-13T04:33:29.612Z,26.90
2023-05-13T04:35:56.339Z,28.10
2023-05-13T04:38:23.088Z,26.60
2023-05-13T04:40:49.772Z,27.13
2023-05-13T04:43:16.531Z,28.77
2023-05-13T04:45:43.236Z,26.90
2023-05-13T04:48:10.328Z,25.67
2023-05-13T04:50:37.278Z,25.90
2023-05-13T04:53:04.627Z,25.63
2023-05-13T04:55:31.388Z,25.23
2023-05-13T04:57:58.052Z,25.27
2023-05-13T05:00:25.113Z,22.47
2023-05-13T05:02:51.917Z,24.10
2023-05-13T05:05:18.832Z,23.33
2023-05-13T05:07:45.557Z,24.00
2023-05-13T05:10:12.387Z,24.40
2023-05-13T05:12:39.867Z,23.27
2023-05-13T05:15:11.386Z,24.17
2023-05-13T05:17:38.169Z,22.73
2023-05-13T05:20:05.381Z,22.77
2023-05-13T05:22:32.545Z,23.67
2023-05-13T05:24:59.208Z,23.43
2023-05-13T05:27:25.912Z,22.63
2023-05-13T05:29:53.031Z,22.77
2023-05-13T05:32:19.925Z,21.70
2023-05-13T05:34:46.683Z,22.57
2023-05-13T05:37:13.412Z,20.30
2023-05-13T05:39:41.226Z,20.40
2023-05-13T05:42:08.547Z,20.27
2023-05-13T05:44:35.339Z,19.00
2023-05-13T05:47:02.052Z,19.87
2023-05-13T05:49:28.787Z,17.70
2023-05-13T05:51:55.463Z,16.00
2023-05-13T05:54:22.174Z,17.03
2023-05-13T05:56:48.867Z,16.23
2023-05-13T05:59:15.519Z,14.47
2023-05-13T06:01:42.216Z,13.10
2023-05-13T06:04:09.070Z,12.80
2023-05-13T06:06:36.437Z,12.90
2023-05-13T06:09:03.288Z,12.20
2023-05-13T06:11:29.983Z,12.90
2023-05-13T06:13:57.547Z,12.30
2023-05-13T06:16:24.466Z,12.20
2023-05-13T06:18:51.335Z,12.30
2023-05-13T06:21:18.104Z,11.87
2023-05-13T06:23:44.850Z,11.10
2023-05-13T06:26:11.569Z,11.20
2023-05-13T06:28:38.359Z,11.13
2023-05-13T06:31:05.226Z,10.70
2023-05-13T06:33:32.576Z,9.57
2023-05-13T06:35:59.355Z,8.70
2023-05-13T06:38:26.061Z,9.37
2023-05-13T06:40:52.762Z,9.60
2023-05-13T06:43:19.574Z,8.90
2023-05-13T06:45:46.296Z,9.13
2023-05-13T06:48:13.904Z,8.67
2023-05-13T06:50:41.145Z,8.97
2023-05-13T06:53:11.864Z,8.77
2023-05-13T06:55:41.912Z,7.60
2023-05-13T06:58:09.340Z,6.93
2023-05-13T07:00:40.961Z,8.13
2023-05-13T07:03:08.561Z,7.83
2023-05-13T07:05:35.962Z,7.00
2023-05-13T07:08:07.012Z,7.50
2023-05-13T07:10:34.599Z,8.67
2023-05-13T07:13:04.949Z,7.50
2023-05-13T07:15:31.755Z,7.50
2023-05-13T07:17:58.626Z,7.30
2023-05-13T07:20:26.605Z,7.33
2023-05-13T07:22:53.739Z,7.80
2023-05-13T07:25:20.603Z,7.70
2023-05-13T07:27:47.904Z,7.13
2023-05-13T07:30:14.952Z,7.67
2023-05-13T07:32:41.958Z,6.97
2023-05-13T07:35:09.923Z,7.63
2023-05-13T07:37:39.679Z,6.93
2023-05-13T07:40:07.978Z,7.27
2023-05-13T07:42:35.052Z,7.27
2023-05-13T07:45:02.013Z,7.03
2023-05-13T07:47:29.231Z,7.00
2023-05-13T07:49:56.307Z,7.40
2023-05-13T07:52:23.567Z,7.23
2023-05-13T07:54:50.368Z,7.50
2023-05-13T07:57:17.114Z,6.93
2023-05-13T07:59:44.963Z,6.90
2023-05-13T08:02:12.544Z,7.33
2023-05-13T08:04:39.439Z,7.53
2023-05-13T08:07:06.491Z,7.33
2023-05-13T08:09:33.184Z,7.53
2023-05-13T08:11:59.891Z,8.30
2023-05-13T08:14:26.684Z,7.23
2023-05-13T08:16:53.683Z,7.73
2023-05-13T08:19:20.514Z,7.50
2023-05-13T08:21:47.239Z,8.67
2023-05-13T08:24:13.943Z,6.87
2023-05-13T08:26:40.699Z,6.57
2023-05-13T08:29:07.587Z,7.13
2023-05-13T08:31:34.424Z,6.30
2023-05-13T08:34:01.199Z,5.57
2023-05-13T08:36:28.681Z,5.60
2023-05-13T08:38:55.438Z,5.40
2023-05-13T08:41:22.976Z,6.13
2023-05-13T08:43:51.949Z,5.63
2023-05-13T08:46:25.006Z,5.17
2023-05-13T08:48:53.127Z,6.10
2023-05-13T08:51:19.941Z,5.63
2023-05-13T08:53:48.829Z,5.53
2023-05-13T08:56:15.466Z,5.90
2023-05-13T08:58:42.230Z,6.40
2023-05-13T09:01:09.049Z,5.40
2023-05-13T09:03:40.367Z,5.87
2023-05-13T09:06:07.088Z,5.50
2023-05-13T09:08:34.308Z,5.23
2023-05-13T09:11:01.384Z,5.63
2023-05-13T09:13:28.143Z,5.53
2023-05-13T09:15:54.956Z,5.93
2023-05-13T09:18:21.835Z,5.17
2023-05-13T09:20:48.660Z,5.00
2023-05-13T09:23:16.090Z,5.07
2023-05-13T09:25:43.445Z,5.80
2023-05-13T09:28:14.598Z,5.03
2023-05-13T09:30:44.563Z,5.20
2023-05-13T09:33:19.694Z,4.87
2023-05-13T09:35:52.911Z,4.53
2023-05-13T09:38:21.783Z,4.50
2023-05-13T09:40:56.819Z,5.13
2023-05-13T09:43:25.800Z,4.10
2023-05-13T09:45:56.861Z,4.60
2023-05-13T09:48:28.764Z,4.03
2023-05-13T09:50:58.001Z,4.40
2023-05-13T09:53:25.909Z,5.00
2023-05-13T09:55:57.591Z,4.33
2023-05-13T09:58:25.724Z,5.10
2023-05-13T10:00:52.858Z,4.60
2023-05-13T10:03:19.901Z,4.60
2023-05-13T10:05:49.160Z,4.83
2023-05-13T10:08:18.212Z,4.23
2023-05-13T10:10:46.596Z,4.77
2023-05-13T10:13:18.161Z,4.70
2023-05-13T10:15:53.311Z,6.30
2023-05-13T10:18:22.166Z,5.57
2023-05-13T10:20:53.789Z,6.50
2023-05-13T10:23:22.559Z,5.13
2023-05-13T10:25:51.044Z,5.40
2023-05-13T10:28:17.939Z,5.53
2023-05-13T10:30:45.057Z,5.37
2023-05-13T10:33:12.506Z,4.93
2023-05-13T10:35:43.301Z,5.60
2023-05-13T10:38:17.529Z,5.60
2023-05-13T10:40:56.239Z,6.30
2023-05-13T10:43:27.209Z,5.97
2023-05-13T10:46:06.549Z,5.83
2023-05-13T10:48:56.919Z,5.20
2023-05-13T10:51:25.533Z,6.20
2023-05-13T10:53:57.131Z,11.47
2023-05-13T10:56:25.870Z,5.83
2023-05-13T10:58:59.914Z,6.57
2023-05-13T11:01:34.769Z,6.20
2023-05-13T11:04:04.688Z,6.30
2023-05-13T11:06:39.480Z,6.03
2023-05-13T11:09:14.642Z,5.60
2023-05-13T11:11:42.223Z,5.23
2023-05-13T11:14:21.438Z,6.10
2023-05-13T11:17:18.684Z,5.80
2023-05-13T11:19:47.082Z,5.80
2023-05-13T11:22:18.146Z,5.93
2023-05-13T11:24:46.250Z,5.97
2023-05-13T11:27:17.702Z,7.87
2023-05-13T11:29:52.303Z,5.60
2023-05-13T11:33:08.419Z,3.43
2023-05-13T11:35:35.233Z,3.10
2023-05-13T11:38:03.130Z,3.13
2023-05-13T11:40:31.901Z,2.93
2023-05-13T11:42:59.749Z,2.33
2023-05-13T11:45:27.817Z,3.10
2023-05-13T11:47:56.280Z,2.77
2023-05-13T11:50:27.854Z,2.73
2023-05-13T11:52:59.299Z,2.90
2023-05-13T11:55:27.435Z,2.80
2023-05-13T11:57:54.804Z,3.50
2023-05-13T12:00:27.269Z,3.67
2023-05-13T12:02:55.201Z,2.90
2023-05-13T12:05:22.767Z,3.30
2023-05-13T12:07:49.774Z,3.10
2023-05-13T12:10:16.904Z,3.43
2023-05-13T12:12:45.548Z,3.40
2023-05-13T12:15:14.438Z,2.60
2023-05-13T12:17:41.620Z,3.30
2023-05-13T12:20:08.807Z,3.30
2023-05-13T12:22:36.367Z,3.23
2023-05-13T12:25:32.438Z,3.30
2023-05-13T12:28:00.140Z,2.63
2023-05-13T12:30:37.383Z,3.30
2023-05-13T12:33:07.090Z,2.80
2023-05-13T12:35:34.011Z,2.93
2023-05-13T12:38:05.467Z,2.20
2023-05-13T12:40:32.721Z,2.20
2023-05-13T12:43:01.029Z,2.57
2023-05-13T12:45:31.794Z,2.90
2023-05-13T12:48:00.555Z,2.80
2023-05-13T12:50:27.477Z,2.30
2023-05-13T12:52:54.365Z,1.83
2023-05-13T12:55:21.360Z,2.43
2023-05-13T12:57:56.312Z,2.80
2023-05-13T13:00:24.213Z,1.90
2023-05-13T13:02:52.061Z,2.47
2023-05-13T13:05:19.182Z,1.90
2023-05-13T13:07:45.898Z,2.37
2023-05-13T13:10:12.706Z,1.70
2023-05-13T13:12:39.631Z,2.00
2023-05-13T13:15:10.950Z,1.87
2023-05-13T13:17:37.919Z,1.87
2023-05-13T13:20:07.438Z,2.97
2023-05-13T13:22:37.041Z,1.97
2023-05-13T13:25:05.742Z,2.27
2023-05-13T13:27:34.011Z,1.90
2023-05-13T13:30:00.963Z,3.40
2023-05-13T13:32:27.762Z,4.47
2023-05-13T13:34:54.728Z,4.50
2023-05-13T13:37:21.485Z,5.60
2023-05-13T13:39:48.270Z,6.30
2023-05-13T13:42:15.080Z,5.43
2023-05-13T13:44:41.880Z,7.57
2023-05-13T13:47:09.740Z,4.10
2023-05-13T13:49:36.541Z,3.63
2023-05-13T13:52:03.452Z,2.63
2023-05-13T13:54:30.269Z,1.90
2023-05-13T13:56:57.019Z,1.98
2023-05-13T13:59:23.785Z,2.00
2023-05-13T14:01:50.739Z,2.03
2023-05-13T14:04:27.742Z,2.88
2023-05-13T14:06:57.797Z,2.30
2023-05-13T14:09:25.091Z,2.10
2023-05-13T14:11:52.105Z,2.00
2023-05-13T14:14:19.018Z,2.40
2023-05-13T14:16:46.018Z,1.95
2023-05-13T14:19:12.824Z,2.37
2023-05-13T14:21:39.771Z,2.10
2023-05-13T14:24:08.409Z,4.40
2023-05-13T14:26:35.371Z,2.83
2023-05-13T14:29:02.218Z,2.80
2023-05-13T14:31:28.974Z,2.70
2023-05-13T14:33:55.962Z,2.80
2023-05-13T14:36:23.081Z,2.60
2023-05-13T14:38:49.840Z,2.77
2023-05-13T14:41:19.902Z,2.77
2023-05-13T14:43:47.283Z,2.90
2023-05-13T14:46:14.274Z,2.10
2023-05-13T14:48:41.254Z,2.77
2023-05-13T14:51:08.042Z,2.70
2023-05-13T14:53:34.888Z,2.37
2023-05-13T14:56:01.670Z,2.53
2023-05-13T14:58:28.616Z,2.63
2023-05-13T15:00:56.065Z,2.40
2023-05-13T15:03:22.954Z,2.07
2023-05-13T15:05:50.257Z,2.20
2023-05-13T15:08:17.123Z,1.60
2023-05-13T15:10:44.484Z,2.20
2023-05-13T15:13:11.683Z,2.90
2023-05-13T15:15:38.693Z,2.27
2023-05-13T15:18:06.409Z,2.40
2023-05-13T15:20:33.183Z,2.03
2023-05-13T15:23:00.064Z,2.40
2023-05-13T15:25:26.779Z,2.50
2023-05-13T15:27:54.306Z,3.03
2023-05-13T15:30:21.420Z,2.20
2023-05-13T15:32:48.518Z,2.13
2023-05-13T15:35:17.400Z,2.20
2023-05-13T15:37:44.277Z,1.97
2023-05-13T15:40:11.581Z,1.90
2023-05-13T15:42:38.620Z,1.90
2023-05-13T15:45:05.900Z,2.30
2023-05-13T15:47:32.900Z,1.97
2023-05-13T15:49:59.783Z,2.30
2023-05-13T15:52:26.633Z,2.47
2023-05-13T15:54:53.349Z,2.20
2023-05-13T15:57:20.125Z,2.07
2023-05-13T15:59:47.082Z,2.30
2023-05-13T16:02:13.863Z,4.30
2023-05-13T16:04:40.785Z,5.80
2023-05-13T16:07:11.149Z,8.27
2023-05-13T16:09:40.910Z,7.00
2023-05-13T16:12:08.094Z,6.40
2023-05-13T16:14:35.529Z,4.70
2023-05-13T16:17:02.310Z,4.50
2023-05-13T16:19:29.103Z,3.40
2023-05-13T16:21:55.986Z,3.30
2023-05-13T16:24:26.337Z,4.10
2023-05-13T16:26:53.133Z,4.67
2023-05-13T16:29:21.189Z,4.50
2023-05-13T16:31:48.043Z,6.83
2023-05-13T16:34:15.126Z,3.70
2023-05-13T16:36:43.060Z,8.53
2023-05-13T16:39:09.792Z,5.87
2023-05-13T16:41:36.689Z,2.77
2023-05-13T16:44:03.975Z,2.70
2023-05-13T16:46:35.294Z,2.73
2023-05-13T16:49:02.473Z,2.70
2023-05-13T16:51:29.291Z,3.07
2023-05-13T16:53:56.405Z,2.93
2023-05-13T16:56:23.155Z,2.80
2023-05-13T16:58:49.890Z,2.97
2023-05-13T17:01:16.865Z,3.70
2023-05-13T17:03:44.102Z,3.30
2023-05-13T17:06:10.928Z,3.03
2023-05-13T17:08:37.826Z,2.67
2023-05-13T17:11:04.742Z,3.53
2023-05-13T17:13:32.172Z,2.80
2023-05-13T17:15:58.868Z,3.40
2023-05-13T17:18:26.491Z,3.60
2023-05-13T17:20:53.332Z,3.70
2023-05-13T17:23:20.084Z,3.83
2023-05-13T17:25:46.925Z,3.73
2023-05-13T17:28:13.814Z,3.50
2023-05-13T17:30:40.575Z,5.00
2023-05-13T17:33:07.519Z,4.33
2023-05-13T17:35:34.430Z,4.83
2023-05-13T17:38:01.225Z,5.87
2023-05-13T17:40:28.096Z,6.87
2023-05-13T17:42:54.817Z,7.20
2023-05-13T17:45:21.777Z,9.13
2023-05-13T17:47:48.647Z,11.40
2023-05-13T17:50:16.230Z,11.10
2023-05-13T17:52:43.013Z,28.97
2023-05-13T17:55:09.972Z,31.63
2023-05-13T17:57:36.748Z,8.40
2023-05-13T18:00:06.636Z,5.33
2023-05-13T18:02:34.030Z,3.50
2023-05-13T18:05:00.910Z,4.00
2023-05-13T18:07:28.099Z,5.43
2023-05-13T18:09:55.110Z,3.83
2023-05-13T18:12:22.085Z,4.53
2023-05-13T18:14:49.018Z,4.60
2023-05-13T18:17:16.109Z,8.10
2023-05-13T18:19:42.936Z,9.87
2023-05-13T18:22:09.896Z,11.20
2023-05-13T18:24:38.621Z,12.53
2023-05-13T18:27:06.676Z,16.63
2023-05-13T18:29:33.827Z,7.97
2023-05-13T18:32:00.760Z,6.13
2023-05-13T18:34:27.558Z,4.40
2023-05-13T18:36:54.754Z,3.80
2023-05-13T18:39:21.878Z,4.30
2023-05-13T18:41:48.806Z,3.87
2023-05-13T18:44:15.811Z,3.87
2023-05-13T18:46:44.493Z,3.47
2023-05-13T18:49:11.707Z,3.40
2023-05-13T18:51:38.702Z,3.53
2023-05-13T18:54:06.531Z,4.10
2023-05-13T18:56:34.000Z,4.03
2023-05-13T18:59:03.343Z,4.27
2023-05-13T19:01:30.212Z,4.17
2023-05-13T19:03:57.344Z,3.67
2023-05-13T19:06:24.277Z,3.47
2023-05-13T19:08:51.035Z,3.90
2023-05-13T19:11:17.905Z,4.00
2023-05-13T19:13:47.679Z,3.97
2023-05-13T19:16:15.558Z,3.80
2023-05-13T19:18:42.491Z,3.90
2023-05-13T19:21:09.252Z,4.60
2023-05-13T19:23:37.974Z,4.90
2023-05-13T19:26:04.840Z,4.30
2023-05-13T19:28:32.143Z,3.63
2023-05-13T19:30:58.921Z,4.57
2023-05-13T19:33:26.121Z,4.37
2023-05-13T19:35:52.879Z,5.20
2023-05-13T19:38:20.741Z,5.57
2023-05-13T19:40:47.989Z,5.30
2023-05-13T19:43:14.913Z,4.60
2023-05-13T19:45:41.702Z,4.90
2023-05-13T19:48:08.556Z,5.00
2023-05-13T19:50:35.487Z,4.50
2023-05-13T19:53:02.200Z,4.70
2023-05-13T19:55:29.078Z,5.00
2023-05-13T19:57:56.038Z,4.43
2023-05-13T20:00:23.287Z,5.80
2023-05-13T20:02:50.452Z,4.70
2023-05-13T20:05:17.280Z,5.70
2023-05-13T20:07:43.942Z,5.20
2023-05-13T20:10:11.566Z,4.60
2023-05-13T20:12:38.245Z,4.73
2023-05-13T20:15:05.590Z,5.50
2023-05-13T20:17:32.574Z,5.73
2023-05-13T20:19:59.446Z,5.50
2023-05-13T20:22:26.448Z,4.80
2023-05-13T20:24:54.385Z,5.77
2023-05-13T20:27:21.419Z,6.63
2023-05-13T20:29:49.130Z,6.37
2023-05-13T20:32:24.830Z,6.20
2023-05-13T20:34:52.587Z,6.80
2023-05-13T20:37:21.136Z,5.97
2023-05-13T20:39:49.520Z,6.67
2023-05-13T20:42:16.526Z,6.30
2023-05-13T20:44:45.859Z,6.33
2023-05-13T20:47:15.119Z,7.13
2023-05-13T20:49:43.926Z,7.47
2023-05-13T20:52:11.462Z,7.50
2023-05-13T20:54:38.635Z,6.40
2023-05-13T20:57:05.750Z,7.10
2023-05-13T20:59:32.566Z,6.97
2023-05-13T21:01:59.562Z,6.73
2023-05-13T21:04:26.426Z,5.90
2023-05-13T21:06:53.207Z,7.13
2023-05-13T21:09:20.127Z,6.90
2023-05-13T21:11:46.894Z,6.63
2023-05-13T21:14:13.708Z,7.23
2023-05-13T21:16:40.522Z,6.87
2023-05-13T21:19:07.548Z,7.17
2023-05-13T21:21:34.513Z,7.37
2023-05-13T21:24:01.241Z,7.77
2023-05-13T21:26:28.068Z,8.07
2023-05-13T21:28:54.707Z,7.30
2023-05-13T21:31:21.498Z,7.77
2023-05-13T21:33:49.081Z,8.23
2023-05-13T21:36:16.203Z,8.80
2023-05-13T21:38:43.001Z,8.40
2023-05-13T21:41:09.732Z,8.50
2023-05-13T21:43:36.569Z,9.63
2023-05-13T21:46:03.496Z,10.17
2023-05-13T21:48:30.292Z,9.20
2023-05-13T21:50:57.909Z,9.83
2023-05-13T21:53:24.649Z,9.40
2023-05-13T21:55:51.889Z,9.80
2023-05-13T21:58:19.437Z,10.23
2023-05-13T22:00:47.421Z,10.97
2023-05-13T22:03:14.262Z,10.10
2023-05-13T22:05:44.042Z,9.97
2023-05-13T22:08:11.163Z,10.63
2023-05-13T22:10:39.167Z,10.67
2023-05-13T22:13:06.288Z,9.80
2023-05-13T22:15:32.955Z,9.30
2023-05-13T22:17:59.882Z,8.80
2023-05-13T22:20:26.718Z,8.97
2023-05-13T22:22:53.508Z,9.37
2023-05-13T22:25:20.284Z,9.43
2023-05-13T22:27:48.662Z,9.90
2023-05-13T22:30:15.515Z,9.70
2023-05-13T22:32:42.222Z,10.27
2023-05-13T22:35:09.345Z,10.37
2023-05-13T22:37:36.066Z,10.10
2023-05-13T22:40:02.857Z,9.93
2023-05-13T22:42:29.598Z,10.77
2023-05-13T22:44:56.236Z,10.50
2023-05-13T22:47:23.031Z,15.37
2023-05-13T22:49:49.717Z,16.10
2023-05-13T22:52:16.448Z,14.80
2023-05-13T22:54:43.129Z,15.20
2023-05-13T22:57:09.798Z,18.60
2023-05-13T22:59:36.604Z,18.37
2023-05-13T23:02:03.496Z,15.00
2023-05-13T23:04:30.366Z,14.20
2023-05-13T23:06:57.098Z,12.90
2023-05-13T23:09:23.750Z,12.90
2023-05-13T23:11:50.474Z,12.37
2023-05-13T23:14:17.119Z,13.13
2023-05-13T23:16:43.953Z,13.20
2023-05-13T23:19:10.876Z,12.43
2023-05-13T23:21:37.576Z,13.33
2023-05-13T23:24:04.358Z,12.80
2023-05-13T23:26:31.492Z,13.90
2023-05-13T23:28:58.202Z,13.30
2023-05-13T23:31:24.986Z,14.00
2023-05-13T23:33:51.692Z,13.63
2023-05-13T23:36:18.417Z,13.77
2023-05-13T23:38:45.142Z,13.20
2023-05-13T23:41:11.815Z,13.87
2023-05-13T23:43:38.551Z,13.50
2023-05-13T23:46:05.499Z,14.67
2023-05-13T23:48:32.369Z,13.27
2023-05-13T23:50:59.138Z,13.57
2023-05-13T23:53:25.940Z,14.80
2023-05-13T23:55:52.863Z,14.00
2023-05-13T23:58:19.557Z,13.50
